Terminal Aerodrome Forecast
Issued by NWS Wilmington, NC

Home | Current Version | Previous Version | Text Only | Print | Product List | Glossary On
Versions: 1 2 3 4 5 6 7 8 9 10 11 12 13 14 15 16 17 18
000
FTUS42 KILM 030500
TAFLBT
TAF
KLBT 030527Z 0306/0406 20006KT P6SM FEW050 SCT250
      TEMPO 0310/0312 6SM BR
     FM031300 24005KT P6SM FEW050 SCT250
     FM031800 19007KT P6SM VCTS SCT050CB SCT250
     FM040100 17003KT P6SM FEW030 BKN250=

USA.gov is the U.S. government's official web portal to all federal, state and local government web resources and services.